Terminal Aerodrome Forecast
Issued by NWS

Home | Current Version | Previous Version | Text Only | Print | Product List | Glossary On
Versions: 1 2 3 4 5 6 7 8 9 10 11 12 13 14 15 16 17 18 19 20 21 22 23 24
000
FTUS44 KOUN 291730
TAFGAG
TAF
KGAG 291730Z 2918/3018 19012G18KT P6SM BKN060
     FM300300 16010G18KT 5SM -RA OVC050
     FM301000 12012G18KT 5SM -RA OVC040
      TEMPO 3010/3014 TSRA OVC040CB=

USA.gov is the U.S. government's official web portal to all federal, state and local government web resources and services.